sensor_id;sensor_type;location;lat;lon;timestamp;temperature;humidity
53978;DHT22;39886;47.984;-1.586;2023-03-31T00:02:02;19.50;67.70
53978;DHT22;39886;47.984;-1.586;2023-03-31T00:04:39;19.50;67.70
53978;DHT22;39886;47.984;-1.586;2023-03-31T00:07:12;19.50;67.70
53978;DHT22;39886;47.984;-1.586;2023-03-31T00:09:38;19.50;67.70
53978;DHT22;39886;47.984;-1.586;2023-03-31T00:12:06;19.50;67.70
53978;DHT22;39886;47.984;-1.586;2023-03-31T00:14:32;19.50;67.70
53978;DHT22;39886;47.984;-1.586;2023-03-31T00:16:58;19.50;67.70
53978;DHT22;39886;47.984;-1.586;2023-03-31T00:19:23;19.50;67.70
53978;DHT22;39886;47.984;-1.586;2023-03-31T00:21:49;19.50;67.70
53978;DHT22;39886;47.984;-1.586;2023-03-31T00:24:17;19.50;67.70
53978;DHT22;39886;47.984;-1.586;2023-03-31T00:26:43;19.50;67.70
53978;DHT22;39886;47.984;-1.586;2023-03-31T00:29:11;19.50;67.70
53978;DHT22;39886;47.984;-1.586;2023-03-31T00:31:37;19.50;67.70
53978;DHT22;39886;47.984;-1.586;2023-03-31T00:34:06;19.50;67.70
53978;DHT22;39886;47.984;-1.586;2023-03-31T00:36:32;19.50;67.70
53978;DHT22;39886;47.984;-1.586;2023-03-31T00:39:03;19.50;67.70
53978;DHT22;39886;47.984;-1.586;2023-03-31T00:41:34;19.50;67.70
53978;DHT22;39886;47.984;-1.586;2023-03-31T00:44:07;19.50;67.70
53978;DHT22;39886;47.984;-1.586;2023-03-31T00:51:54;19.50;67.70
53978;DHT22;39886;47.984;-1.586;2023-03-31T00:54:22;19.50;67.70
53978;DHT22;39886;47.984;-1.586;2023-03-31T00:56:51;19.40;67.70
53978;DHT22;39886;47.984;-1.586;2023-03-31T00:59:21;19.50;67.70
53978;DHT22;39886;47.984;-1.586;2023-03-31T01:01:52;19.40;67.70
53978;DHT22;39886;47.984;-1.586;2023-03-31T01:04:19;19.40;67.70
53978;DHT22;39886;47.984;-1.586;2023-03-31T01:07:01;19.40;67.70
53978;DHT22;39886;47.984;-1.586;2023-03-31T01:09:31;19.40;67.60
53978;DHT22;39886;47.984;-1.586;2023-03-31T01:12:02;19.40;67.70
53978;DHT22;39886;47.984;-1.586;2023-03-31T01:14:29;19.40;67.70
53978;DHT22;39886;47.984;-1.586;2023-03-31T01:16:55;19.40;67.70
53978;DHT22;39886;47.984;-1.586;2023-03-31T01:26:05;19.40;67.70
53978;DHT22;39886;47.984;-1.586;2023-03-31T01:28:54;19.40;67.70
53978;DHT22;39886;47.984;-1.586;2023-03-31T01:40:13;19.40;67.70
53978;DHT22;39886;47.984;-1.586;2023-03-31T01:45:51;19.40;67.80
53978;DHT22;39886;47.984;-1.586;2023-03-31T01:48:47;19.40;67.80
53978;DHT22;39886;47.984;-1.586;2023-03-31T01:51:26;19.40;67.80
53978;DHT22;39886;47.984;-1.586;2023-03-31T01:54:22;19.40;67.90
53978;DHT22;39886;47.984;-1.586;2023-03-31T01:56:58;19.40;67.80
53978;DHT22;39886;47.984;-1.586;2023-03-31T01:59:46;19.30;67.80
53978;DHT22;39886;47.984;-1.586;2023-03-31T02:02:26;19.40;67.80
53978;DHT22;39886;47.984;-1.586;2023-03-31T02:04:59;19.30;67.70
53978;DHT22;39886;47.984;-1.586;2023-03-31T02:07:39;19.30;67.80
53978;DHT22;39886;47.984;-1.586;2023-03-31T02:10:08;19.30;67.80
53978;DHT22;39886;47.984;-1.586;2023-03-31T02:12:38;19.30;67.80
53978;DHT22;39886;47.984;-1.586;2023-03-31T02:15:09;19.30;67.80
53978;DHT22;39886;47.984;-1.586;2023-03-31T02:17:38;19.30;67.70
53978;DHT22;39886;47.984;-1.586;2023-03-31T02:20:09;19.30;67.80
53978;DHT22;39886;47.984;-1.586;2023-03-31T02:22:38;19.30;67.70
53978;DHT22;39886;47.984;-1.586;2023-03-31T02:25:07;19.30;67.70
53978;DHT22;39886;47.984;-1.586;2023-03-31T02:27:38;19.30;67.70
53978;DHT22;39886;47.984;-1.586;2023-03-31T02:30:05;19.30;67.80
53978;DHT22;39886;47.984;-1.586;2023-03-31T02:34:58;19.30;67.80
53978;DHT22;39886;47.984;-1.586;2023-03-31T02:37:26;19.30;67.70
53978;DHT22;39886;47.984;-1.586;2023-03-31T02:39:54;19.30;67.80
53978;DHT22;39886;47.984;-1.586;2023-03-31T02:42:21;19.30;67.70
53978;DHT22;39886;47.984;-1.586;2023-03-31T02:44:47;19.30;67.70
53978;DHT22;39886;47.984;-1.586;2023-03-31T02:47:14;19.30;67.80
53978;DHT22;39886;47.984;-1.586;2023-03-31T02:49:47;19.30;67.70
53978;DHT22;39886;47.984;-1.586;2023-03-31T02:55:35;19.30;67.70
53978;DHT22;39886;47.984;-1.586;2023-03-31T02:58:14;19.30;67.70
53978;DHT22;39886;47.984;-1.586;2023-03-31T03:04:25;19.20;67.70
53978;DHT22;39886;47.984;-1.586;2023-03-31T03:12:24;19.20;67.70
53978;DHT22;39886;47.984;-1.586;2023-03-31T03:15:02;19.20;67.70
53978;DHT22;39886;47.984;-1.586;2023-03-31T03:17:42;19.20;67.60
53978;DHT22;39886;47.984;-1.586;2023-03-31T03:20:10;19.20;67.60
53978;DHT22;39886;47.984;-1.586;2023-03-31T03:22:37;19.20;67.60
53978;DHT22;39886;47.984;-1.586;2023-03-31T03:25:07;19.20;67.60
53978;DHT22;39886;47.984;-1.586;2023-03-31T03:27:36;19.20;67.60
53978;DHT22;39886;47.984;-1.586;2023-03-31T03:30:05;19.20;67.60
53978;DHT22;39886;47.984;-1.586;2023-03-31T03:32:31;19.20;67.60
53978;DHT22;39886;47.984;-1.586;2023-03-31T03:34:59;19.20;67.60
53978;DHT22;39886;47.984;-1.586;2023-03-31T03:37:25;19.20;67.50
53978;DHT22;39886;47.984;-1.586;2023-03-31T03:39:50;19.20;67.50
53978;DHT22;39886;47.984;-1.586;2023-03-31T03:42:16;19.20;67.50
53978;DHT22;39886;47.984;-1.586;2023-03-31T03:44:42;19.20;67.50
53978;DHT22;39886;47.984;-1.586;2023-03-31T03:47:08;19.20;67.50
53978;DHT22;39886;47.984;-1.586;2023-03-31T03:49:33;19.20;67.50
53978;DHT22;39886;47.984;-1.586;2023-03-31T03:51:59;19.20;67.50
53978;DHT22;39886;47.984;-1.586;2023-03-31T03:54:25;19.10;67.40
53978;DHT22;39886;47.984;-1.586;2023-03-31T03:56:51;19.10;67.40
53978;DHT22;39886;47.984;-1.586;2023-03-31T03:59:16;19.20;67.40
53978;DHT22;39886;47.984;-1.586;2023-03-31T04:01:42;19.10;67.40
53978;DHT22;39886;47.984;-1.586;2023-03-31T04:04:08;19.20;67.40
53978;DHT22;39886;47.984;-1.586;2023-03-31T04:06:34;19.10;67.40
53978;DHT22;39886;47.984;-1.586;2023-03-31T04:08:59;19.10;67.40
53978;DHT22;39886;47.984;-1.586;2023-03-31T04:11:26;19.10;67.40
53978;DHT22;39886;47.984;-1.586;2023-03-31T04:13:52;19.10;67.40
53978;DHT22;39886;47.984;-1.586;2023-03-31T04:16:18;19.10;67.40
53978;DHT22;39886;47.984;-1.586;2023-03-31T04:18:44;19.10;67.40
53978;DHT22;39886;47.984;-1.586;2023-03-31T04:21:13;19.10;67.40
53978;DHT22;39886;47.984;-1.586;2023-03-31T04:23:49;19.10;67.40
53978;DHT22;39886;47.984;-1.586;2023-03-31T04:26:19;19.10;67.40
53978;DHT22;39886;47.984;-1.586;2023-03-31T04:28:51;19.10;67.40
53978;DHT22;39886;47.984;-1.586;2023-03-31T04:31:16;19.10;67.40
53978;DHT22;39886;47.984;-1.586;2023-03-31T04:33:52;19.10;67.40
53978;DHT22;39886;47.984;-1.586;2023-03-31T04:36:17;19.10;67.40
53978;DHT22;39886;47.984;-1.586;2023-03-31T04:38:45;19.10;67.40
53978;DHT22;39886;47.984;-1.586;2023-03-31T04:41:16;19.10;67.40
53978;DHT22;39886;47.984;-1.586;2023-03-31T04:43:42;19.10;67.30
53978;DHT22;39886;47.984;-1.586;2023-03-31T04:46:07;19.10;67.30
53978;DHT22;39886;47.984;-1.586;2023-03-31T04:48:34;19.10;67.30
53978;DHT22;39886;47.984;-1.586;2023-03-31T04:51:00;19.10;67.30
53978;DHT22;39886;47.984;-1.586;2023-03-31T04:53:26;19.10;67.30
53978;DHT22;39886;47.984;-1.586;2023-03-31T04:55:51;19.10;67.20
53978;DHT22;39886;47.984;-1.586;2023-03-31T04:58:17;19.10;67.20
53978;DHT22;39886;47.984;-1.586;2023-03-31T05:00:43;19.10;67.20
53978;DHT22;39886;47.984;-1.586;2023-03-31T05:03:09;19.10;67.20
53978;DHT22;39886;47.984;-1.586;2023-03-31T05:05:35;19.10;67.30
53978;DHT22;39886;47.984;-1.586;2023-03-31T05:08:02;19.10;67.20
53978;DHT22;39886;47.984;-1.586;2023-03-31T05:10:29;19.00;67.20
53978;DHT22;39886;47.984;-1.586;2023-03-31T05:12:55;19.10;67.20
53978;DHT22;39886;47.984;-1.586;2023-03-31T05:15:21;19.10;67.20
53978;DHT22;39886;47.984;-1.586;2023-03-31T05:17:49;19.10;67.20
53978;DHT22;39886;47.984;-1.586;2023-03-31T05:20:15;19.10;67.20
53978;DHT22;39886;47.984;-1.586;2023-03-31T05:22:41;19.10;67.20
53978;DHT22;39886;47.984;-1.586;2023-03-31T05:25:08;19.00;67.10
53978;DHT22;39886;47.984;-1.586;2023-03-31T05:27:34;19.00;67.10
53978;DHT22;39886;47.984;-1.586;2023-03-31T05:30:02;19.10;67.10
53978;DHT22;39886;47.984;-1.586;2023-03-31T05:32:29;19.10;67.10
53978;DHT22;39886;47.984;-1.586;2023-03-31T05:34:54;19.00;67.10
53978;DHT22;39886;47.984;-1.586;2023-03-31T05:37:24;19.00;67.10
53978;DHT22;39886;47.984;-1.586;2023-03-31T05:39:50;19.00;67.10
53978;DHT22;39886;47.984;-1.586;2023-03-31T05:42:17;19.00;67.10
53978;DHT22;39886;47.984;-1.586;2023-03-31T05:44:42;19.00;67.10
53978;DHT22;39886;47.984;-1.586;2023-03-31T05:47:08;19.00;67.20
53978;DHT22;39886;47.984;-1.586;2023-03-31T05:49:34;19.00;67.20
53978;DHT22;39886;47.984;-1.586;2023-03-31T05:52:00;19.00;67.20
53978;DHT22;39886;47.984;-1.586;2023-03-31T05:54:26;19.00;67.00
53978;DHT22;39886;47.984;-1.586;2023-03-31T05:56:52;19.20;66.80
53978;DHT22;39886;47.984;-1.586;2023-03-31T05:59:18;19.30;66.50
53978;DHT22;39886;47.984;-1.586;2023-03-31T06:01:43;19.40;66.20
53978;DHT22;39886;47.984;-1.586;2023-03-31T06:04:09;19.50;66.00
53978;DHT22;39886;47.984;-1.586;2023-03-31T06:06:35;19.50;65.70
53978;DHT22;39886;47.984;-1.586;2023-03-31T06:09:03;19.60;65.50
53978;DHT22;39886;47.984;-1.586;2023-03-31T06:11:29;19.70;65.40
53978;DHT22;39886;47.984;-1.586;2023-03-31T06:13:55;19.80;65.20
53978;DHT22;39886;47.984;-1.586;2023-03-31T06:16:20;19.80;64.90
53978;DHT22;39886;47.984;-1.586;2023-03-31T06:18:46;19.90;64.90
53978;DHT22;39886;47.984;-1.586;2023-03-31T06:21:14;20.00;64.70
53978;DHT22;39886;47.984;-1.586;2023-03-31T06:23:41;20.00;64.50
53978;DHT22;39886;47.984;-1.586;2023-03-31T06:26:12;20.10;64.40
53978;DHT22;39886;47.984;-1.586;2023-03-31T06:28:37;20.20;64.40
53978;DHT22;39886;47.984;-1.586;2023-03-31T06:31:12;20.20;64.40
53978;DHT22;39886;47.984;-1.586;2023-03-31T06:33:39;20.30;64.00
53978;DHT22;39886;47.984;-1.586;2023-03-31T06:36:06;20.30;63.90
53978;DHT22;39886;47.984;-1.586;2023-03-31T06:38:34;20.40;63.70
53978;DHT22;39886;47.984;-1.586;2023-03-31T06:41:01;20.40;63.60
53978;DHT22;39886;47.984;-1.586;2023-03-31T06:43:27;20.50;63.50
53978;DHT22;39886;47.984;-1.586;2023-03-31T06:45:53;20.50;63.40
53978;DHT22;39886;47.984;-1.586;2023-03-31T06:48:19;20.60;63.50
53978;DHT22;39886;47.984;-1.586;2023-03-31T06:50:45;20.60;63.30
53978;DHT22;39886;47.984;-1.586;2023-03-31T06:53:11;20.70;62.80
53978;DHT22;39886;47.984;-1.586;2023-03-31T06:55:37;20.70;63.20
53978;DHT22;39886;47.984;-1.586;2023-03-31T06:58:03;20.80;63.20
53978;DHT22;39886;47.984;-1.586;2023-03-31T07:00:30;20.90;63.10
53978;DHT22;39886;47.984;-1.586;2023-03-31T07:02:55;20.90;63.30
53978;DHT22;39886;47.984;-1.586;2023-03-31T07:05:21;21.00;63.20
53978;DHT22;39886;47.984;-1.586;2023-03-31T07:07:54;21.10;63.40
53978;DHT22;39886;47.984;-1.586;2023-03-31T07:10:22;21.20;63.20
53978;DHT22;39886;47.984;-1.586;2023-03-31T07:12:48;21.30;62.90
53978;DHT22;39886;47.984;-1.586;2023-03-31T07:15:14;21.30;62.80
53978;DHT22;39886;47.984;-1.586;2023-03-31T07:17:40;21.40;62.70
53978;DHT22;39886;47.984;-1.586;2023-03-31T07:20:12;21.50;62.60
53978;DHT22;39886;47.984;-1.586;2023-03-31T07:22:40;21.60;62.80
53978;DHT22;39886;47.984;-1.586;2023-03-31T07:25:07;21.60;62.70
53978;DHT22;39886;47.984;-1.586;2023-03-31T07:27:34;21.70;62.70
53978;DHT22;39886;47.984;-1.586;2023-03-31T07:30:00;21.70;63.40
53978;DHT22;39886;47.984;-1.586;2023-03-31T07:32:25;21.70;63.00
53978;DHT22;39886;47.984;-1.586;2023-03-31T07:34:51;21.60;63.20
53978;DHT22;39886;47.984;-1.586;2023-03-31T07:37:17;21.60;63.30
53978;DHT22;39886;47.984;-1.586;2023-03-31T07:39:43;21.50;64.50
53978;DHT22;39886;47.984;-1.586;2023-03-31T07:42:08;21.50;64.50
53978;DHT22;39886;47.984;-1.586;2023-03-31T07:44:35;21.50;63.80
53978;DHT22;39886;47.984;-1.586;2023-03-31T07:47:02;21.40;64.00
53978;DHT22;39886;47.984;-1.586;2023-03-31T07:49:31;21.40;64.20
53978;DHT22;39886;47.984;-1.586;2023-03-31T07:51:57;21.40;64.20
53978;DHT22;39886;47.984;-1.586;2023-03-31T07:54:23;21.40;64.50
53978;DHT22;39886;47.984;-1.586;2023-03-31T07:56:49;21.40;64.60
53978;DHT22;39886;47.984;-1.586;2023-03-31T07:59:15;21.30;64.50
53978;DHT22;39886;47.984;-1.586;2023-03-31T08:01:41;21.30;64.80
53978;DHT22;39886;47.984;-1.586;2023-03-31T08:04:06;21.30;64.80
53978;DHT22;39886;47.984;-1.586;2023-03-31T08:06:32;21.30;65.10
53978;DHT22;39886;47.984;-1.586;2023-03-31T08:08:58;21.30;65.00
53978;DHT22;39886;47.984;-1.586;2023-03-31T08:11:25;21.30;65.00
53978;DHT22;39886;47.984;-1.586;2023-03-31T08:13:51;21.30;65.00
53978;DHT22;39886;47.984;-1.586;2023-03-31T08:16:17;21.30;65.20
53978;DHT22;39886;47.984;-1.586;2023-03-31T08:18:43;21.30;65.20
53978;DHT22;39886;47.984;-1.586;2023-03-31T08:21:09;21.40;65.50
53978;DHT22;39886;47.984;-1.586;2023-03-31T08:23:35;21.40;65.00
53978;DHT22;39886;47.984;-1.586;2023-03-31T08:26:15;21.40;65.20
53978;DHT22;39886;47.984;-1.586;2023-03-31T08:28:44;21.40;65.30
53978;DHT22;39886;47.984;-1.586;2023-03-31T08:31:10;21.40;65.30
53978;DHT22;39886;47.984;-1.586;2023-03-31T08:33:37;21.40;65.10
53978;DHT22;39886;47.984;-1.586;2023-03-31T08:36:05;21.40;65.20
53978;DHT22;39886;47.984;-1.586;2023-03-31T08:38:34;21.40;65.00
53978;DHT22;39886;47.984;-1.586;2023-03-31T08:41:03;21.30;65.30
53978;DHT22;39886;47.984;-1.586;2023-03-31T08:43:38;21.30;65.30
53978;DHT22;39886;47.984;-1.586;2023-03-31T08:46:09;21.20;65.50
53978;DHT22;39886;47.984;-1.586;2023-03-31T08:48:40;21.30;65.50
53978;DHT22;39886;47.984;-1.586;2023-03-31T08:51:21;21.30;65.60
53978;DHT22;39886;47.984;-1.586;2023-03-31T08:56:34;21.30;65.30
53978;DHT22;39886;47.984;-1.586;2023-03-31T08:59:05;21.20;65.30
53978;DHT22;39886;47.984;-1.586;2023-03-31T09:01:46;21.20;65.30
53978;DHT22;39886;47.984;-1.586;2023-03-31T09:04:25;21.20;65.50
53978;DHT22;39886;47.984;-1.586;2023-03-31T09:12:24;21.20;65.70
53978;DHT22;39886;47.984;-1.586;2023-03-31T09:15:03;21.20;65.90
53978;DHT22;39886;47.984;-1.586;2023-03-31T09:17:39;21.20;65.70
53978;DHT22;39886;47.984;-1.586;2023-03-31T09:25:45;21.20;66.00
53978;DHT22;39886;47.984;-1.586;2023-03-31T09:28:23;21.30;66.20
53978;DHT22;39886;47.984;-1.586;2023-03-31T09:30:50;21.30;66.20
53978;DHT22;39886;47.984;-1.586;2023-03-31T09:35:43;21.30;66.10
53978;DHT22;39886;47.984;-1.586;2023-03-31T09:38:13;21.40;67.50
53978;DHT22;39886;47.984;-1.586;2023-03-31T09:40:40;21.40;66.00
53978;DHT22;39886;47.984;-1.586;2023-03-31T09:43:16;21.40;66.30
53978;DHT22;39886;47.984;-1.586;2023-03-31T09:45:44;21.40;66.40
53978;DHT22;39886;47.984;-1.586;2023-03-31T09:48:20;21.40;66.40
53978;DHT22;39886;47.984;-1.586;2023-03-31T09:50:54;21.40;66.50
53978;DHT22;39886;47.984;-1.586;2023-03-31T09:59:20;21.50;66.20
53978;DHT22;39886;47.984;-1.586;2023-03-31T10:01:51;21.60;66.90
53978;DHT22;39886;47.984;-1.586;2023-03-31T10:04:23;21.60;66.60
53978;DHT22;39886;47.984;-1.586;2023-03-31T10:06:50;21.70;66.60
53978;DHT22;39886;47.984;-1.586;2023-03-31T10:09:20;21.70;67.00
53978;DHT22;39886;47.984;-1.586;2023-03-31T10:12:07;21.70;66.50
53978;DHT22;39886;47.984;-1.586;2023-03-31T10:14:46;21.80;66.50
53978;DHT22;39886;47.984;-1.586;2023-03-31T10:17:17;21.80;66.50
53978;DHT22;39886;47.984;-1.586;2023-03-31T10:20:03;21.80;66.50
53978;DHT22;39886;47.984;-1.586;2023-03-31T10:22:32;21.80;66.70
53978;DHT22;39886;47.984;-1.586;2023-03-31T10:25:18;21.80;66.50
53978;DHT22;39886;47.984;-1.586;2023-03-31T10:27:47;21.90;66.30
53978;DHT22;39886;47.984;-1.586;2023-03-31T10:30:25;21.90;66.20
53978;DHT22;39886;47.984;-1.586;2023-03-31T10:32:53;21.90;66.30
53978;DHT22;39886;47.984;-1.586;2023-03-31T10:35:26;21.90;66.30
53978;DHT22;39886;47.984;-1.586;2023-03-31T10:38:01;21.80;66.90
53978;DHT22;39886;47.984;-1.586;2023-03-31T10:40:30;21.80;66.20
53978;DHT22;39886;47.984;-1.586;2023-03-31T10:45:37;21.80;66.20
53978;DHT22;39886;47.984;-1.586;2023-03-31T10:48:26;21.80;66.10
53978;DHT22;39886;47.984;-1.586;2023-03-31T10:50:57;21.80;66.10
53978;DHT22;39886;47.984;-1.586;2023-03-31T10:53:23;21.70;66.00
53978;DHT22;39886;47.984;-1.586;2023-03-31T10:58:46;21.70;66.00
53978;DHT22;39886;47.984;-1.586;2023-03-31T11:02:31;21.70;65.90
53978;DHT22;39886;47.984;-1.586;2023-03-31T11:09:54;21.70;65.90
53978;DHT22;39886;47.984;-1.586;2023-03-31T11:12:35;21.70;65.90
53978;DHT22;39886;47.984;-1.586;2023-03-31T11:15:19;21.70;65.70
53978;DHT22;39886;47.984;-1.586;2023-03-31T11:20:20;21.70;65.40
53978;DHT22;39886;47.984;-1.586;2023-03-31T11:23:17;21.70;65.40
53978;DHT22;39886;47.984;-1.586;2023-03-31T11:25:55;21.80;65.40
53978;DHT22;39886;47.984;-1.586;2023-03-31T11:31:08;21.80;65.30
53978;DHT22;39886;47.984;-1.586;2023-03-31T11:33:49;21.70;65.20
53978;DHT22;39886;47.984;-1.586;2023-03-31T11:42:20;21.60;65.30
53978;DHT22;39886;47.984;-1.586;2023-03-31T11:44:51;21.60;65.30
53978;DHT22;39886;47.984;-1.586;2023-03-31T11:47:23;21.60;65.30
53978;DHT22;39886;47.984;-1.586;2023-03-31T11:50:16;21.60;65.50
53978;DHT22;39886;47.984;-1.586;2023-03-31T11:52:52;21.60;65.50
53978;DHT22;39886;47.984;-1.586;2023-03-31T11:55:21;21.60;65.50
53978;DHT22;39886;47.984;-1.586;2023-03-31T11:58:04;21.60;65.20
53978;DHT22;39886;47.984;-1.586;2023-03-31T12:00:38;21.60;65.60
53978;DHT22;39886;47.984;-1.586;2023-03-31T12:03:28;21.60;65.50
53978;DHT22;39886;47.984;-1.586;2023-03-31T12:06:12;21.60;65.60
53978;DHT22;39886;47.984;-1.586;2023-03-31T12:11:49;21.80;65.70
53978;DHT22;39886;47.984;-1.586;2023-03-31T12:14:42;21.90;65.60
53978;DHT22;39886;47.984;-1.586;2023-03-31T12:17:22;21.90;65.70
53978;DHT22;39886;47.984;-1.586;2023-03-31T12:19:57;21.90;65.90
53978;DHT22;39886;47.984;-1.586;2023-03-31T12:22:31;21.90;65.90
53978;DHT22;39886;47.984;-1.586;2023-03-31T12:24:59;21.90;65.90
53978;DHT22;39886;47.984;-1.586;2023-03-31T12:30:00;21.90;66.30
53978;DHT22;39886;47.984;-1.586;2023-03-31T12:32:30;21.90;66.20
53978;DHT22;39886;47.984;-1.586;2023-03-31T12:35:01;21.90;66.60
53978;DHT22;39886;47.984;-1.586;2023-03-31T12:37:39;21.90;66.60
53978;DHT22;39886;47.984;-1.586;2023-03-31T12:43:17;21.90;66.50
53978;DHT22;39886;47.984;-1.586;2023-03-31T12:57:22;22.10;66.70
53978;DHT22;39886;47.984;-1.586;2023-03-31T13:02:43;22.10;66.60
53978;DHT22;39886;47.984;-1.586;2023-03-31T13:08:00;22.20;66.20
53978;DHT22;39886;47.984;-1.586;2023-03-31T13:10:29;22.00;64.50
53978;DHT22;39886;47.984;-1.586;2023-03-31T13:13:18;22.00;64.20
53978;DHT22;39886;47.984;-1.586;2023-03-31T13:15:56;21.90;63.60
53978;DHT22;39886;47.984;-1.586;2023-03-31T13:18:23;21.80;62.70
53978;DHT22;39886;47.984;-1.586;2023-03-31T13:21:03;21.80;62.20
53978;DHT22;39886;47.984;-1.586;2023-03-31T13:23:43;21.70;61.50
53978;DHT22;39886;47.984;-1.586;2023-03-31T13:37:12;21.70;60.50
53978;DHT22;39886;47.984;-1.586;2023-03-31T13:39:54;21.60;59.70
53978;DHT22;39886;47.984;-1.586;2023-03-31T13:51:29;21.60;58.40
53978;DHT22;39886;47.984;-1.586;2023-03-31T14:03:12;21.80;59.10
53978;DHT22;39886;47.984;-1.586;2023-03-31T14:05:44;21.90;58.90
53978;DHT22;39886;47.984;-1.586;2023-03-31T14:11:22;21.90;59.10
53978;DHT22;39886;47.984;-1.586;2023-03-31T14:14:18;22.00;59.30
53978;DHT22;39886;47.984;-1.586;2023-03-31T14:16:59;22.00;59.10
53978;DHT22;39886;47.984;-1.586;2023-03-31T14:27:39;22.10;59.20
53978;DHT22;39886;47.984;-1.586;2023-03-31T14:30:38;22.20;59.70
53978;DHT22;39886;47.984;-1.586;2023-03-31T14:36:12;22.20;59.50
53978;DHT22;39886;47.984;-1.586;2023-03-31T14:38:40;22.30;59.60
53978;DHT22;39886;47.984;-1.586;2023-03-31T14:41:12;22.30;60.00
53978;DHT22;39886;47.984;-1.586;2023-03-31T14:43:48;22.30;59.60
53978;DHT22;39886;47.984;-1.586;2023-03-31T14:46:19;22.40;59.70
53978;DHT22;39886;47.984;-1.586;2023-03-31T14:48:47;22.40;60.00
53978;DHT22;39886;47.984;-1.586;2023-03-31T14:51:15;22.50;59.70
53978;DHT22;39886;47.984;-1.586;2023-03-31T14:53:41;22.50;59.60
53978;DHT22;39886;47.984;-1.586;2023-03-31T14:56:20;22.50;59.50
53978;DHT22;39886;47.984;-1.586;2023-03-31T14:58:51;22.50;59.70
53978;DHT22;39886;47.984;-1.586;2023-03-31T15:01:22;22.60;59.80
53978;DHT22;39886;47.984;-1.586;2023-03-31T15:03:51;22.60;59.60
53978;DHT22;39886;47.984;-1.586;2023-03-31T15:06:17;22.70;59.50
53978;DHT22;39886;47.984;-1.586;2023-03-31T15:08:43;22.80;59.80
53978;DHT22;39886;47.984;-1.586;2023-03-31T15:11:17;22.80;59.40
53978;DHT22;39886;47.984;-1.586;2023-03-31T15:13:47;23.00;59.10
53978;DHT22;39886;47.984;-1.586;2023-03-31T15:19:03;23.00;59.20
53978;DHT22;39886;47.984;-1.586;2023-03-31T15:21:31;23.00;58.80
53978;DHT22;39886;47.984;-1.586;2023-03-31T15:23:58;23.10;59.20
53978;DHT22;39886;47.984;-1.586;2023-03-31T15:27:06;23.10;59.10
53978;DHT22;39886;47.984;-1.586;2023-03-31T15:31:59;22.90;59.40
53978;DHT22;39886;47.984;-1.586;2023-03-31T15:34:30;22.90;59.40
53978;DHT22;39886;47.984;-1.586;2023-03-31T15:36:58;22.80;59.60
53978;DHT22;39886;47.984;-1.586;2023-03-31T15:39:28;22.80;59.90
53978;DHT22;39886;47.984;-1.586;2023-03-31T15:41:55;22.70;59.90
53978;DHT22;39886;47.984;-1.586;2023-03-31T15:44:46;22.70;60.00
53978;DHT22;39886;47.984;-1.586;2023-03-31T15:47:19;22.70;60.30
53978;DHT22;39886;47.984;-1.586;2023-03-31T15:49:57;22.60;60.30
53978;DHT22;39886;47.984;-1.586;2023-03-31T15:52:36;22.60;60.50
53978;DHT22;39886;47.984;-1.586;2023-03-31T15:55:30;22.50;60.50
53978;DHT22;39886;47.984;-1.586;2023-03-31T15:57:59;22.50;60.70
53978;DHT22;39886;47.984;-1.586;2023-03-31T16:01:04;22.40;60.80
53978;DHT22;39886;47.984;-1.586;2023-03-31T16:03:34;22.40;60.80
53978;DHT22;39886;47.984;-1.586;2023-03-31T16:06:13;22.40;60.70
53978;DHT22;39886;47.984;-1.586;2023-03-31T16:08:44;22.40;60.60
53978;DHT22;39886;47.984;-1.586;2023-03-31T16:11:21;22.50;60.50
53978;DHT22;39886;47.984;-1.586;2023-03-31T16:13:53;22.40;61.20
53978;DHT22;39886;47.984;-1.586;2023-03-31T16:16:22;22.40;60.80
53978;DHT22;39886;47.984;-1.586;2023-03-31T16:18:50;22.30;60.90
53978;DHT22;39886;47.984;-1.586;2023-03-31T16:21:34;22.20;61.10
53978;DHT22;39886;47.984;-1.586;2023-03-31T16:24:02;22.20;61.30
53978;DHT22;39886;47.984;-1.586;2023-03-31T16:26:28;22.10;61.40
53978;DHT22;39886;47.984;-1.586;2023-03-31T16:28:55;22.10;61.50
53978;DHT22;39886;47.984;-1.586;2023-03-31T16:33:59;22.00;61.80
53978;DHT22;39886;47.984;-1.586;2023-03-31T16:36:26;22.00;61.90
53978;DHT22;39886;47.984;-1.586;2023-03-31T16:38:52;22.00;62.00
53978;DHT22;39886;47.984;-1.586;2023-03-31T16:41:23;21.90;61.90
53978;DHT22;39886;47.984;-1.586;2023-03-31T16:43:49;21.90;62.20
53978;DHT22;39886;47.984;-1.586;2023-03-31T16:46:19;21.90;62.20
53978;DHT22;39886;47.984;-1.586;2023-03-31T16:48:45;21.90;62.40
53978;DHT22;39886;47.984;-1.586;2023-03-31T16:51:11;21.80;62.40
53978;DHT22;39886;47.984;-1.586;2023-03-31T16:53:37;21.80;62.70
53978;DHT22;39886;47.984;-1.586;2023-03-31T16:56:04;21.80;62.70
53978;DHT22;39886;47.984;-1.586;2023-03-31T16:58:33;21.80;62.70
53978;DHT22;39886;47.984;-1.586;2023-03-31T17:00:59;21.70;62.70
53978;DHT22;39886;47.984;-1.586;2023-03-31T17:03:25;21.70;62.60
53978;DHT22;39886;47.984;-1.586;2023-03-31T17:05:54;21.70;62.60
53978;DHT22;39886;47.984;-1.586;2023-03-31T17:08:23;21.60;62.70
53978;DHT22;39886;47.984;-1.586;2023-03-31T17:10:55;21.60;62.80
53978;DHT22;39886;47.984;-1.586;2023-03-31T17:13:22;21.60;62.80
53978;DHT22;39886;47.984;-1.586;2023-03-31T17:15:48;21.50;62.70
53978;DHT22;39886;47.984;-1.586;2023-03-31T17:18:14;21.50;62.70
53978;DHT22;39886;47.984;-1.586;2023-03-31T17:20:40;21.50;62.70
53978;DHT22;39886;47.984;-1.586;2023-03-31T17:23:06;21.50;62.80
53978;DHT22;39886;47.984;-1.586;2023-03-31T17:25:32;21.50;62.70
53978;DHT22;39886;47.984;-1.586;2023-03-31T17:28:03;21.60;62.70
53978;DHT22;39886;47.984;-1.586;2023-03-31T17:30:30;21.50;62.60
53978;DHT22;39886;47.984;-1.586;2023-03-31T17:32:57;21.50;62.50
53978;DHT22;39886;47.984;-1.586;2023-03-31T17:35:23;21.60;62.70
53978;DHT22;39886;47.984;-1.586;2023-03-31T17:37:50;21.50;62.60
53978;DHT22;39886;47.984;-1.586;2023-03-31T17:40:21;21.50;62.60
53978;DHT22;39886;47.984;-1.586;2023-03-31T17:42:47;21.50;62.60
53978;DHT22;39886;47.984;-1.586;2023-03-31T17:45:13;21.50;62.60
53978;DHT22;39886;47.984;-1.586;2023-03-31T17:47:39;21.50;62.70
53978;DHT22;39886;47.984;-1.586;2023-03-31T17:50:06;21.50;62.70
53978;DHT22;39886;47.984;-1.586;2023-03-31T17:52:33;21.50;62.70
53978;DHT22;39886;47.984;-1.586;2023-03-31T17:55:00;21.40;62.80
53978;DHT22;39886;47.984;-1.586;2023-03-31T17:57:27;21.40;62.90
53978;DHT22;39886;47.984;-1.586;2023-03-31T17:59:53;21.40;62.90
53978;DHT22;39886;47.984;-1.586;2023-03-31T18:02:18;21.40;63.00
53978;DHT22;39886;47.984;-1.586;2023-03-31T18:04:45;21.30;63.00
53978;DHT22;39886;47.984;-1.586;2023-03-31T18:07:11;21.30;63.00
53978;DHT22;39886;47.984;-1.586;2023-03-31T18:09:37;21.30;63.10
53978;DHT22;39886;47.984;-1.586;2023-03-31T18:12:04;21.20;63.10
53978;DHT22;39886;47.984;-1.586;2023-03-31T18:14:29;21.20;63.20
53978;DHT22;39886;47.984;-1.586;2023-03-31T18:16:55;21.20;63.20